Time;durP1;ratioP1;P1;durP2;ratioP2;P2;SDS_P1;SDS_P2;PMS_P1;PMS_P2;Temp;Humidity;BMP_temperature;BMP_pressure;BME280_temperature;BME280_humidity;BME280_pressure;Samples;Min_cycle;Max_cycle;Signal;HPM_P1;HPM_P2
2022/12/08 00:01:29;;;;;;;2.67;1.70;;;;;;;;;;5090532;28;20024;-78
2022/12/08 00:03:57;;;;;;;3.97;1.60;;;;;;;;;;5090387;28;20044;-78
2022/12/08 00:09:22;;;;;;;2.03;1.20;;;;;;;;;;5074777;28;20035;-78
2022/12/08 00:11:56;;;;;;;2.05;1.40;;;;;;;;;;5090376;28;20513;-78
2022/12/08 00:14:23;;;;;;;2.92;1.38;;;;;;;;;;5090025;28;20118;-78
2022/12/08 00:16:49;;;;;;;3.97;1.63;;;;;;;;;;5074517;28;20493;-78
2022/12/08 00:19:14;;;;;;;3.25;1.48;;;;;;;;;;5074363;28;20056;-78
2022/12/08 00:21:40;;;;;;;2.60;1.48;;;;;;;;;;5073027;28;20064;-78
2022/12/08 00:24:05;;;;;;;2.38;1.33;;;;;;;;;;5074448;28;20024;-78
2022/12/08 00:26:31;;;;;;;2.45;1.60;;;;;;;;;;5073408;28;20109;-78
2022/12/08 00:28:56;;;;;;;1.38;1.20;;;;;;;;;;5056295;28;20399;-77
2022/12/08 00:31:21;;;;;;;2.03;1.30;;;;;;;;;;5072920;28;20082;-78
2022/12/08 00:33:47;;;;;;;2.53;1.30;;;;;;;;;;5056148;28;20028;-78
2022/12/08 00:36:13;;;;;;;2.08;1.15;;;;;;;;;;5074184;28;20036;-78
2022/12/08 00:38:40;;;;;;;3.53;1.63;;;;;;;;;;5090288;28;20037;-78
2022/12/08 00:41:13;;;;;;;2.55;1.23;;;;;;;;;;5074295;28;20024;-79
2022/12/08 00:43:38;;;;;;;1.42;1.13;;;;;;;;;;5073233;28;20036;-80
2022/12/08 00:46:04;;;;;;;2.60;1.40;;;;;;;;;;5073359;28;20425;-78
2022/12/08 00:48:29;;;;;;;4.88;1.60;;;;;;;;;;5074206;28;20115;-78
2022/12/08 00:50:54;;;;;;;2.60;1.38;;;;;;;;;;5074408;28;20085;-78
2022/12/08 00:53:20;;;;;;;3.70;1.20;;;;;;;;;;5072807;28;20036;-78
2022/12/08 00:55:45;;;;;;;1.77;1.30;;;;;;;;;;5072628;28;20499;-78
2022/12/08 00:58:10;;;;;;;2.80;1.20;;;;;;;;;;5071949;28;20085;-78
2022/12/08 01:00:36;;;;;;;2.55;1.30;;;;;;;;;;5073941;28;20414;-79
2022/12/08 01:03:01;;;;;;;2.88;1.48;;;;;;;;;;5072718;28;20052;-78
2022/12/08 01:05:26;;;;;;;1.58;1.10;;;;;;;;;;5055640;28;20035;-79
2022/12/08 01:07:52;;;;;;;2.70;1.15;;;;;;;;;;5073747;28;20067;-79
2022/12/08 01:10:17;;;;;;;2.85;1.20;;;;;;;;;;5072149;28;20032;-79
2022/12/08 01:12:42;;;;;;;1.85;1.38;;;;;;;;;;5072373;28;20463;-79
2022/12/08 01:15:08;;;;;;;1.85;1.10;;;;;;;;;;5072104;28;20057;-80
2022/12/08 01:17:36;;;;;;;1.30;1.17;;;;;;;;;;5055538;28;20021;-79
2022/12/08 01:20:01;;;;;;;1.50;1.20;;;;;;;;;;5072014;28;20024;-79
2022/12/08 01:22:27;;;;;;;1.58;1.17;;;;;;;;;;5073275;28;20086;-79
2022/12/08 01:24:52;;;;;;;1.77;1.25;;;;;;;;;;5073582;28;20033;-79
2022/12/08 01:27:17;;;;;;;2.17;1.40;;;;;;;;;;5089014;28;20036;-78
2022/12/08 01:29:43;;;;;;;1.10;1.00;;;;;;;;;;5073146;28;20064;-78
2022/12/08 01:32:08;;;;;;;2.03;1.30;;;;;;;;;;5088678;28;20037;-78
2022/12/08 01:34:33;;;;;;;4.95;1.30;;;;;;;;;;5073327;28;20031;-78
2022/12/08 01:36:59;;;;;;;1.90;1.20;;;;;;;;;;5072056;28;20032;-78
2022/12/08 01:39:25;;;;;;;2.50;1.40;;;;;;;;;;5073326;28;20111;-78
2022/12/08 01:41:50;;;;;;;4.20;1.23;;;;;;;;;;5088719;28;20028;-78
2022/12/08 01:44:15;;;;;;;2.58;1.25;;;;;;;;;;5071772;28;20036;-78
2022/12/08 01:46:43;;;;;;;1.60;1.15;;;;;;;;;;5073004;28;20036;-78
2022/12/08 01:49:24;;;;;;;2.03;1.10;;;;;;;;;;5088670;28;20058;-78
2022/12/08 01:51:56;;;;;;;2.53;1.27;;;;;;;;;;5071638;28;20479;-78
2022/12/08 01:54:25;;;;;;;1.48;1.10;;;;;;;;;;5071409;28;20039;-78
2022/12/08 01:57:05;;;;;;;0.90;0.90;;;;;;;;;;5088399;28;20024;-78
2022/12/08 01:59:32;;;;;;;3.50;1.30;;;;;;;;;;5088364;28;20022;-78
2022/12/08 02:01:57;;;;;;;1.85;1.10;;;;;;;;;;5071342;28;20025;-78
2022/12/08 02:04:23;;;;;;;2.03;1.25;;;;;;;;;;5088586;28;20033;-78
2022/12/08 02:06:48;;;;;;;1.88;1.05;;;;;;;;;;5071714;28;20020;-78
2022/12/08 02:09:14;;;;;;;1.08;0.93;;;;;;;;;;5071255;28;20032;-78
2022/12/08 02:11:39;;;;;;;2.92;1.00;;;;;;;;;;5072975;28;20468;-78
2022/12/08 02:14:07;;;;;;;2.72;1.20;;;;;;;;;;5069658;28;20057;-78
2022/12/08 02:16:32;;;;;;;0.80;0.80;;;;;;;;;;5035177;28;20017;-78
2022/12/08 02:19:35;;;;;;;1.25;1.00;;;;;;;;;;5052662;28;20027;-78
2022/12/08 02:22:09;;;;;;;0.80;0.80;;;;;;;;;;5052725;28;20040;-78
2022/12/08 02:24:53;;;;;;;0.77;0.77;;;;;;;;;;5034910;28;20075;-78
2022/12/08 02:27:34;;;;;;;;;;;;;;;;;;5052929;28;20388;-79
2022/12/08 02:30:05;;;;;;;4.15;0.90;;;;;;;;;;5052513;28;19947;-78
2022/12/08 02:32:55;;;;;;;1.70;0.90;;;;;;;;;;5052433;28;20067;-78
2022/12/08 02:35:30;;;;;;;0.95;0.80;;;;;;;;;;5034444;28;20514;-78
2022/12/08 02:38:28;;;;;;;0.80;0.80;;;;;;;;;;5034881;28;20433;-78
2022/12/08 02:41:01;;;;;;;1.23;0.90;;;;;;;;;;5034436;28;20025;-79
2022/12/08 02:43:39;;;;;;;0.80;0.80;;;;;;;;;;5052813;28;20086;-79
2022/12/08 02:46:08;;;;;;;0.73;0.68;;;;;;;;;;5052418;28;20104;-78
2022/12/08 02:48:34;;;;;;;1.58;0.98;;;;;;;;;;5034754;28;20033;-78
2022/12/08 02:50:59;;;;;;;1.25;0.82;;;;;;;;;;5034381;28;20035;-78
2022/12/08 02:53:27;;;;;;;0.80;0.77;;;;;;;;;;5001598;28;20033;-78
2022/12/08 02:56:09;;;;;;;0.75;0.70;;;;;;;;;;5018085;28;20139;-78
2022/12/08 02:58:47;;;;;;;2.25;1.10;;;;;;;;;;5034406;28;20491;-78
2022/12/08 03:01:21;;;;;;;1.08;0.98;;;;;;;;;;5034375;28;20029;-78
2022/12/08 03:04:03;;;;;;;0.70;0.70;;;;;;;;;;5034260;28;20525;-78
2022/12/08 03:06:56;;;;;;;0.70;0.70;;;;;;;;;;5052468;28;20032;-78
2022/12/08 03:09:29;;;;;;;0.90;0.73;;;;;;;;;;5034289;28;20078;-78
2022/12/08 03:12:02;;;;;;;1.10;0.80;;;;;;;;;;5052028;28;20108;-79
2022/12/08 03:14:28;;;;;;;2.95;0.52;;;;;;;;;;5043406;28;20087;-79
2022/12/08 03:16:55;;;;;;;1.73;0.80;;;;;;;;;;5070935;28;20028;-78
2022/12/08 03:19:31;;;;;;;0.85;0.77;;;;;;;;;;5087669;28;20016;-78
2022/12/08 03:22:02;;;;;;;0.80;0.80;;;;;;;;;;5090962;28;20378;-78
2022/12/08 03:24:38;;;;;;;0.73;0.70;;;;;;;;;;5091548;28;20024;-78
2022/12/08 03:27:10;;;;;;;0.75;0.75;;;;;;;;;;5091191;28;20063;-78
2022/12/08 03:29:35;;;;;;;0.82;0.80;;;;;;;;;;5091524;28;20120;-78
2022/12/08 03:32:13;;;;;;;0.73;0.73;;;;;;;;;;5074372;28;20028;-78
2022/12/08 03:34:41;;;;;;;0.60;0.60;;;;;;;;;;5074053;28;20613;-78
2022/12/08 03:37:07;;;;;;;0.85;0.73;;;;;;;;;;5091242;28;20364;-78
2022/12/08 03:39:32;;;;;;;4.90;0.80;;;;;;;;;;5057354;28;20177;-78
2022/12/08 03:41:57;;;;;;;1.10;0.93;;;;;;;;;;5075216;28;20103;-78
2022/12/08 03:44:23;;;;;;;1.35;0.85;;;;;;;;;;5075169;28;20066;-78
2022/12/08 03:46:48;;;;;;;0.88;0.80;;;;;;;;;;5057532;28;20044;-77
2022/12/08 03:49:13;;;;;;;0.70;0.65;;;;;;;;;;5075937;28;20383;-78
2022/12/08 03:51:39;;;;;;;1.75;0.80;;;;;;;;;;5075625;28;20031;-78
2022/12/08 03:54:05;;;;;;;1.48;0.70;;;;;;;;;;5075021;28;20025;-78
2022/12/08 03:56:32;;;;;;;5.18;0.75;;;;;;;;;;5074976;28;20036;-78
2022/12/08 03:58:58;;;;;;;1.23;0.98;;;;;;;;;;5090725;28;20025;-78
2022/12/08 04:01:23;;;;;;;4.20;0.90;;;;;;;;;;5088971;28;20043;-78
2022/12/08 04:03:49;;;;;;;1.75;0.70;;;;;;;;;;5089969;28;20105;-78
2022/12/08 04:06:15;;;;;;;1.48;0.65;;;;;;;;;;5073705;28;20029;-78
2022/12/08 04:08:40;;;;;;;0.70;0.70;;;;;;;;;;5090513;28;20103;-78
2022/12/08 04:11:06;;;;;;;1.08;0.60;;;;;;;;;;5056796;28;20031;-78
2022/12/08 04:13:35;;;;;;;2.85;0.68;;;;;;;;;;5075659;28;20033;-78
2022/12/08 04:16:01;;;;;;;0.80;0.80;;;;;;;;;;5090176;28;20044;-79
2022/12/08 04:18:27;;;;;;;1.10;1.00;;;;;;;;;;5090477;28;20352;-79
2022/12/08 04:20:52;;;;;;;0.77;0.60;;;;;;;;;;5074568;28;20082;-79
2022/12/08 04:23:18;;;;;;;2.08;0.70;;;;;;;;;;5073133;28;20427;-77
2022/12/08 04:25:43;;;;;;;1.00;0.80;;;;;;;;;;5073406;28;20028;-77
2022/12/08 04:28:08;;;;;;;1.25;0.82;;;;;;;;;;5090137;28;20036;-77
2022/12/08 04:30:34;;;;;;;0.80;0.70;;;;;;;;;;5073294;28;20059;-78
2022/12/08 04:32:59;;;;;;;1.10;0.73;;;;;;;;;;5089868;28;20406;-79
2022/12/08 04:35:25;;;;;;;0.60;0.60;;;;;;;;;;5072911;28;20035;-78
2022/12/08 04:37:50;;;;;;;2.47;0.80;;;;;;;;;;5073102;28;20048;-78
2022/12/08 04:40:16;;;;;;;1.23;0.80;;;;;;;;;;5056151;28;20032;-78
2022/12/08 04:42:41;;;;;;;0.60;0.60;;;;;;;;;;5074462;28;20029;-77
2022/12/08 04:45:07;;;;;;;1.27;0.77;;;;;;;;;;5073969;28;20471;-77
2022/12/08 04:47:33;;;;;;;1.00;0.70;;;;;;;;;;5089534;28;20036;-77
2022/12/08 04:49:58;;;;;;;2.22;0.80;;;;;;;;;;5072643;28;20058;-77
2022/12/08 04:52:24;;;;;;;1.17;0.70;;;;;;;;;;5072563;28;20032;-78
2022/12/08 04:54:49;;;;;;;1.08;0.60;;;;;;;;;;5071020;28;20041;-78
2022/12/08 04:57:14;;;;;;;3.28;0.60;;;;;;;;;;5072444;28;20020;-78
2022/12/08 04:59:40;;;;;;;2.78;0.60;;;;;;;;;;5072697;28;20040;-79
2022/12/08 05:02:05;;;;;;;0.60;0.60;;;;;;;;;;5056081;28;20039;-78
2022/12/08 05:04:31;;;;;;;1.02;0.90;;;;;;;;;;5073031;28;20021;-79
2022/12/08 05:06:56;;;;;;;3.03;0.90;;;;;;;;;;5090196;28;20483;-79
2022/12/08 05:09:21;;;;;;;3.97;0.82;;;;;;;;;;5074537;28;20029;-79
2022/12/08 05:11:47;;;;;;;7.07;0.93;;;;;;;;;;5073193;28;20032;-78
2022/12/08 05:14:14;;;;;;;3.83;1.00;;;;;;;;;;5070314;28;20060;-78
2022/12/08 05:16:40;;;;;;;2.38;0.85;;;;;;;;;;5036318;28;20061;-78
2022/12/08 05:19:05;;;;;;;1.60;0.70;;;;;;;;;;5036295;28;20064;-81
2022/12/08 05:21:30;;;;;;;3.25;0.80;;;;;;;;;;5054697;28;20024;-78
2022/12/08 05:23:56;;;;;;;2.13;0.77;;;;;;;;;;5036601;28;20060;-78
2022/12/08 05:26:21;;;;;;;2.95;1.02;;;;;;;;;;5036842;28;20040;-78
2022/12/08 05:28:47;;;;;;;4.53;1.05;;;;;;;;;;5036597;28;20024;-77
2022/12/08 05:31:14;;;;;;;9.20;1.00;;;;;;;;;;5054256;28;20114;-79
2022/12/08 05:33:40;;;;;;;8.85;1.30;;;;;;;;;;5019519;28;20028;-77
2022/12/08 05:36:05;;;;;;;4.93;1.42;;;;;;;;;;5054159;28;20553;-78
2022/12/08 05:38:31;;;;;;;6.50;1.58;;;;;;;;;;5054350;28;20029;-78
2022/12/08 05:40:56;;;;;;;10.18;1.85;;;;;;;;;;5053922;28;20383;-78
2022/12/08 05:43:22;;;;;;;7.82;1.90;;;;;;;;;;5035697;28;20404;-79
2022/12/08 05:45:47;;;;;;;13.05;1.63;;;;;;;;;;5036464;28;20037;-79
2022/12/08 05:48:13;;;;;;;12.45;1.50;;;;;;;;;;5053652;28;20116;-76
2022/12/08 05:50:38;;;;;;;5.63;2.35;;;;;;;;;;5053591;28;20036;-82
2022/12/08 05:53:04;;;;;;;9.68;1.88;;;;;;;;;;5053782;28;20034;-77
2022/12/08 05:55:29;;;;;;;7.35;2.00;;;;;;;;;;5053660;28;20029;-80
2022/12/08 05:57:55;;;;;;;19.67;2.80;;;;;;;;;;5036379;28;20041;-79
2022/12/08 06:00:20;;;;;;;12.10;2.78;;;;;;;;;;5053350;28;20033;-78
2022/12/08 06:02:46;;;;;;;19.90;2.67;;;;;;;;;;5053948;28;20037;-81
2022/12/08 06:05:11;;;;;;;14.00;2.08;;;;;;;;;;5053547;28;20499;-78
2022/12/08 06:07:36;;;;;;;16.92;1.92;;;;;;;;;;5053530;28;20055;-78
2022/12/08 06:10:03;;;;;;;8.80;1.75;;;;;;;;;;5053208;28;20472;-78
2022/12/08 06:12:28;;;;;;;10.63;1.67;;;;;;;;;;5019090;28;20037;-78
2022/12/08 06:14:54;;;;;;;8.70;1.70;;;;;;;;;;5053037;28;20060;-78
2022/12/08 06:17:19;;;;;;;5.95;1.42;;;;;;;;;;5053809;28;20116;-78
2022/12/08 06:19:45;;;;;;;6.00;1.38;;;;;;;;;;5053306;28;20115;-78
2022/12/08 06:22:10;;;;;;;5.55;1.42;;;;;;;;;;5053837;28;20033;-78
2022/12/08 06:24:35;;;;;;;6.35;1.17;;;;;;;;;;5053485;28;20386;-78
2022/12/08 06:27:01;;;;;;;3.47;1.00;;;;;;;;;;5035423;28;20075;-79
2022/12/08 06:29:26;;;;;;;9.82;1.20;;;;;;;;;;5053441;28;20048;-78
2022/12/08 06:31:51;;;;;;;6.05;1.38;;;;;;;;;;5035499;28;20032;-78
2022/12/08 06:34:17;;;;;;;5.45;1.15;;;;;;;;;;5018773;28;20545;-77
2022/12/08 06:36:42;;;;;;;2.70;1.00;;;;;;;;;;5035621;28;20063;-78
2022/12/08 06:39:08;;;;;;;6.10;1.25;;;;;;;;;;5053050;28;20051;-78
2022/12/08 06:42:42;;;;;;;8.02;1.05;;;;;;;;;;5053339;28;20036;-79
2022/12/08 06:44:19;;;;;;;4.25;1.00;;;;;;;;;;5052717;28;20060;-78
2022/12/08 06:46:45;;;;;;;4.47;0.98;;;;;;;;;;5035830;28;20072;-79
2022/12/08 06:49:10;;;;;;;2.78;0.90;;;;;;;;;;5052929;28;20379;-80
2022/12/08 06:51:35;;;;;;;1.63;0.95;;;;;;;;;;5035025;28;20041;-78
2022/12/08 06:54:01;;;;;;;2.08;1.00;;;;;;;;;;5052859;28;20060;-77
2022/12/08 06:56:26;;;;;;;3.13;0.90;;;;;;;;;;5037542;28;20033;-78
2022/12/08 06:58:52;;;;;;;1.50;0.85;;;;;;;;;;5056787;28;20025;-78
2022/12/08 07:01:17;;;;;;;1.67;0.82;;;;;;;;;;5038827;28;20033;-78
2022/12/08 07:03:43;;;;;;;2.53;0.93;;;;;;;;;;5022306;28;20036;-78
2022/12/08 07:06:14;;;;;;;2.22;0.85;;;;;;;;;;5056650;28;20029;-78
2022/12/08 07:08:39;;;;;;;1.60;0.43;;;;;;;;;;5039663;28;20395;-78
2022/12/08 07:11:08;;;;;;;1.88;0.70;;;;;;;;;;5056626;28;20029;-78
2022/12/08 07:13:34;;;;;;;1.00;0.60;;;;;;;;;;5057117;28;20065;-78
2022/12/08 07:15:59;;;;;;;2.58;0.93;;;;;;;;;;5056269;28;20511;-78
2022/12/08 07:18:25;;;;;;;2.60;0.85;;;;;;;;;;5056640;28;20029;-78
2022/12/08 07:20:50;;;;;;;1.95;0.88;;;;;;;;;;5056413;28;20056;-78
2022/12/08 07:23:15;;;;;;;0.95;0.60;;;;;;;;;;5038737;28;20029;-78
2022/12/08 07:25:41;;;;;;;1.73;0.57;;;;;;;;;;5056223;28;20075;-78
2022/12/08 07:28:08;;;;;;;2.88;0.70;;;;;;;;;;5056155;28;20036;-78
2022/12/08 07:30:33;;;;;;;3.25;0.80;;;;;;;;;;5056140;28;20402;-77
2022/12/08 07:32:59;;;;;;;2.67;0.70;;;;;;;;;;5055965;28;20028;-78
2022/12/08 07:35:24;;;;;;;0.60;0.57;;;;;;;;;;5056283;28;20048;-78
2022/12/08 07:37:49;;;;;;;0.70;0.70;;;;;;;;;;5038242;28;20054;-78
2022/12/08 07:40:15;;;;;;;3.10;0.80;;;;;;;;;;5055848;28;20025;-79
2022/12/08 07:42:40;;;;;;;1.38;0.77;;;;;;;;;;5038411;28;20480;-78
2022/12/08 07:45:06;;;;;;;1.80;0.80;;;;;;;;;;5055824;28;20071;-79
2022/12/08 07:47:31;;;;;;;1.38;0.80;;;;;;;;;;5021659;28;20056;-78
2022/12/08 07:49:57;;;;;;;1.55;0.70;;;;;;;;;;5038145;28;20120;-78
2022/12/08 07:52:22;;;;;;;2.13;0.60;;;;;;;;;;5037963;28;20032;-78
2022/12/08 07:54:47;;;;;;;1.25;0.75;;;;;;;;;;5037824;28;20033;-78
2022/12/08 07:57:13;;;;;;;0.65;0.52;;;;;;;;;;5021287;28;20025;-78
2022/12/08 07:59:38;;;;;;;0.73;0.70;;;;;;;;;;5037802;28;20126;-78
2022/12/08 08:02:04;;;;;;;3.88;0.80;;;;;;;;;;5056090;28;20029;-78
2022/12/08 08:04:29;;;;;;;2.78;0.80;;;;;;;;;;5055467;28;20063;-78
2022/12/08 08:06:54;;;;;;;0.65;0.60;;;;;;;;;;5055084;28;20029;-78
2022/12/08 08:09:20;;;;;;;1.20;0.70;;;;;;;;;;5037860;28;20122;-78
2022/12/08 08:11:45;;;;;;;0.98;0.70;;;;;;;;;;5055338;28;20083;-78
2022/12/08 08:14:11;;;;;;;1.27;0.70;;;;;;;;;;5057320;28;20055;-78
2022/12/08 08:16:36;;;;;;;1.00;0.70;;;;;;;;;;5054586;28;20075;-78
2022/12/08 08:19:01;;;;;;;1.17;0.70;;;;;;;;;;5037619;28;20483;-79
2022/12/08 08:21:27;;;;;;;0.93;0.70;;;;;;;;;;5037339;28;20437;-79
2022/12/08 08:23:52;;;;;;;0.80;0.80;;;;;;;;;;5055540;28;20414;-79
2022/12/08 08:26:17;;;;;;;0.88;0.70;;;;;;;;;;5055754;28;20060;-80
2022/12/08 08:28:44;;;;;;;1.08;0.70;;;;;;;;;;5037316;28;20029;-79
2022/12/08 08:31:10;;;;;;;2.08;0.70;;;;;;;;;;5055203;28;20033;-77
2022/12/08 08:33:36;;;;;;;3.78;0.90;;;;;;;;;;5037202;28;20025;-77
2022/12/08 08:36:06;;;;;;;0.60;0.60;;;;;;;;;;5037082;28;20032;-78
2022/12/08 08:38:31;;;;;;;1.52;0.90;;;;;;;;;;5020533;28;20035;-79
2022/12/08 08:40:56;;;;;;;2.28;0.90;;;;;;;;;;5020501;28;20029;-77
2022/12/08 08:43:28;;;;;;;1.13;0.70;;;;;;;;;;5055379;28;20032;-79
2022/12/08 08:45:58;;;;;;;0.95;0.80;;;;;;;;;;5054777;28;20139;-78
2022/12/08 08:48:25;;;;;;;0.75;0.75;;;;;;;;;;5020671;28;20423;-78
2022/12/08 08:50:50;;;;;;;2.35;0.90;;;;;;;;;;5020307;28;20025;-79
2022/12/08 08:53:16;;;;;;;0.73;0.73;;;;;;;;;;5036773;28;20025;-79
2022/12/08 08:55:41;;;;;;;0.80;0.80;;;;;;;;;;5036726;28;20052;-79
2022/12/08 08:58:06;;;;;;;1.02;0.90;;;;;;;;;;5020123;28;20036;-79
2022/12/08 09:00:32;;;;;;;0.80;0.70;;;;;;;;;;5054621;28;20036;-78
2022/12/08 09:02:57;;;;;;;0.85;0.85;;;;;;;;;;5037327;28;20028;-78
2022/12/08 09:05:22;;;;;;;1.50;0.85;;;;;;;;;;5055045;28;20036;-79
2022/12/08 09:07:48;;;;;;;0.98;0.90;;;;;;;;;;5037902;28;20532;-78
2022/12/08 09:10:13;;;;;;;2.25;0.98;;;;;;;;;;5055473;28;20021;-78
2022/12/08 09:12:39;;;;;;;1.00;0.90;;;;;;;;;;5056565;28;20456;-78
2022/12/08 09:15:05;;;;;;;3.67;1.00;;;;;;;;;;5053179;28;20391;-78
2022/12/08 09:17:30;;;;;;;1.55;0.98;;;;;;;;;;5091522;28;20070;-77
2022/12/08 09:19:55;;;;;;;0.77;0.77;;;;;;;;;;5074397;28;20032;-78
2022/12/08 09:22:21;;;;;;;1.45;1.10;;;;;;;;;;5074854;28;20043;-78
2022/12/08 09:24:47;;;;;;;3.63;0.90;;;;;;;;;;5074406;28;20021;-79
2022/12/08 09:27:12;;;;;;;3.17;1.00;;;;;;;;;;5091176;28;20085;-80
2022/12/08 09:29:38;;;;;;;1.10;1.00;;;;;;;;;;5074838;28;20028;-76
2022/12/08 09:32:03;;;;;;;0.88;0.88;;;;;;;;;;5090246;28;20036;-78
2022/12/08 09:34:30;;;;;;;1.48;0.90;;;;;;;;;;5072943;28;20063;-78
2022/12/08 09:36:55;;;;;;;2.85;0.90;;;;;;;;;;5073972;28;20028;-77
2022/12/08 09:39:20;;;;;;;0.90;0.80;;;;;;;;;;5073788;28;20024;-77
2022/12/08 09:41:49;;;;;;;1.30;0.90;;;;;;;;;;5072507;28;20033;-77
2022/12/08 09:44:17;;;;;;;0.75;0.70;;;;;;;;;;5074229;28;20510;-77
2022/12/08 09:46:42;;;;;;;1.45;0.90;;;;;;;;;;5074318;28;20136;-76
2022/12/08 09:49:14;;;;;;;0.70;0.70;;;;;;;;;;5089591;28;20103;-78
2022/12/08 09:51:40;;;;;;;4.68;0.90;;;;;;;;;;5089675;28;20020;-78
2022/12/08 09:54:12;;;;;;;0.80;0.80;;;;;;;;;;5073086;28;20067;-77
2022/12/08 09:56:38;;;;;;;3.50;0.70;;;;;;;;;;5072368;28;20115;-77
2022/12/08 09:59:29;;;;;;;1.05;0.90;;;;;;;;;;5073797;28;20099;-77
2022/12/08 10:01:55;;;;;;;2.97;0.75;;;;;;;;;;5073497;28;20021;-77
2022/12/08 10:04:33;;;;;;;0.60;0.60;;;;;;;;;;5073724;28;20025;-77
2022/12/08 10:07:23;;;;;;;0.75;0.75;;;;;;;;;;5055925;28;20032;-78
2022/12/08 10:10:13;;;;;;;0.85;0.80;;;;;;;;;;5073918;28;20024;-77
2022/12/08 10:12:46;;;;;;;0.60;0.60;;;;;;;;;;5073462;28;20039;-77
2022/12/08 10:15:33;;;;;;;1.13;0.70;;;;;;;;;;5089133;28;20048;-77
2022/12/08 10:18:09;;;;;;;2.00;0.98;;;;;;;;;;5072225;28;20028;-78
2022/12/08 10:20:37;;;;;;;0.75;0.75;;;;;;;;;;5072247;28;20021;-77
2022/12/08 10:23:12;;;;;;;0.80;0.80;;;;;;;;;;5072202;28;20505;-77
2022/12/08 10:25:43;;;;;;;1.02;0.77;;;;;;;;;;5072112;28;20025;-77
2022/12/08 10:28:09;;;;;;;0.80;0.80;;;;;;;;;;5089653;28;20074;-77
2022/12/08 10:30:34;;;;;;;1.55;0.80;;;;;;;;;;5093436;28;20021;-77
2022/12/08 10:33:00;;;;;;;1.05;0.77;;;;;;;;;;5093419;28;20032;-77
2022/12/08 10:35:42;;;;;;;0.70;0.70;;;;;;;;;;5076593;28;20020;-77
2022/12/08 10:38:35;;;;;;;0.68;0.68;;;;;;;;;;5076268;28;20031;-77
2022/12/08 10:41:06;;;;;;;2.08;0.77;;;;;;;;;;5077170;28;20478;-77
2022/12/08 10:43:32;;;;;;;1.67;0.70;;;;;;;;;;5075987;28;20024;-77
2022/12/08 10:46:12;;;;;;;1.02;0.68;;;;;;;;;;5094838;28;20467;-78
2022/12/08 10:48:49;;;;;;;0.80;0.80;;;;;;;;;;5098160;28;20025;-78
2022/12/08 10:51:47;;;;;;;0.75;0.60;;;;;;;;;;5081381;28;20036;-78
2022/12/08 10:54:27;;;;;;;2.22;0.57;;;;;;;;;;5046177;28;20147;-77
2022/12/08 10:56:54;;;;;;;0.70;0.70;;;;;;;;;;5075888;28;20031;-77
2022/12/08 10:59:20;;;;;;;0.75;0.70;;;;;;;;;;5075754;28;20032;-77
2022/12/08 11:01:53;;;;;;;0.73;0.65;;;;;;;;;;5058917;28;20035;-77
2022/12/08 11:04:37;;;;;;;0.75;0.73;;;;;;;;;;5093298;28;20029;-77
2022/12/08 11:07:04;;;;;;;2.08;0.90;;;;;;;;;;5075740;28;20413;-77
2022/12/08 11:09:47;;;;;;;0.70;0.70;;;;;;;;;;5075474;28;20021;-77
2022/12/08 11:12:14;;;;;;;0.60;0.60;;;;;;;;;;5091805;28;20079;-77
2022/12/08 11:14:43;;;;;;;0.70;0.63;;;;;;;;;;5091966;28;20506;-77
2022/12/08 11:17:11;;;;;;;0.50;0.50;;;;;;;;;;5076365;28;20107;-77
2022/12/08 11:19:39;;;;;;;1.17;0.70;;;;;;;;;;5076394;28;20036;-77
2022/12/08 11:22:27;;;;;;;0.77;0.60;;;;;;;;;;5092160;28;20471;-77
2022/12/08 11:24:57;;;;;;;0.80;0.60;;;;;;;;;;5092165;28;20094;-77
2022/12/08 11:27:22;;;;;;;0.63;0.63;;;;;;;;;;5075305;28;20024;-77
2022/12/08 11:29:48;;;;;;;0.80;0.70;;;;;;;;;;5076140;28;20085;-78
2022/12/08 11:32:13;;;;;;;0.82;0.80;;;;;;;;;;5075043;28;20497;-78
2022/12/08 11:34:43;;;;;;;5.97;0.80;;;;;;;;;;5076274;28;20142;-78
2022/12/08 11:37:18;;;;;;;3.03;1.30;;;;;;;;;;5091703;28;20073;-77
2022/12/08 11:39:46;;;;;;;0.93;0.90;;;;;;;;;;5076287;28;20031;-77
2022/12/08 11:42:13;;;;;;;3.50;0.90;;;;;;;;;;5073999;28;20020;-77
2022/12/08 11:44:57;;;;;;;1.10;0.85;;;;;;;;;;5075049;28;20033;-77
2022/12/08 11:47:29;;;;;;;5.15;1.00;;;;;;;;;;5076180;28;20059;-78
2022/12/08 11:50:11;;;;;;;1.60;0.80;;;;;;;;;;5091764;28;20035;-79
2022/12/08 11:52:44;;;;;;;2.08;0.90;;;;;;;;;;5074707;28;20024;-78
2022/12/08 11:55:33;;;;;;;2.20;1.35;;;;;;;;;;5091590;28;20435;-78
2022/12/08 11:58:04;;;;;;;1.70;0.80;;;;;;;;;;5091283;28;20390;-79
2022/12/08 12:00:30;;;;;;;2.13;0.70;;;;;;;;;;5091379;28;20413;-79
2022/12/08 12:03:05;;;;;;;1.15;0.70;;;;;;;;;;5091667;28;20082;-78
2022/12/08 12:05:55;;;;;;;2.47;1.20;;;;;;;;;;5091485;28;20028;-79
2022/12/08 12:08:39;;;;;;;2.40;0.77;;;;;;;;;;5074167;28;20378;-78
2022/12/08 12:14:30;;;;;;;1.50;0.80;;;;;;;;;;5088620;28;20046;-81
2022/12/08 12:17:01;;;;;;;1.90;0.88;;;;;;;;;;5074045;28;20052;-81
2022/12/08 12:19:29;;;;;;;0.98;0.60;;;;;;;;;;5090969;28;20237;-78
2022/12/08 12:21:55;;;;;;;1.23;0.80;;;;;;;;;;5091063;28;20020;-78
2022/12/08 12:24:25;;;;;;;1.48;0.60;;;;;;;;;;5092032;28;20091;-78
2022/12/08 12:27:14;;;;;;;0.70;0.60;;;;;;;;;;5073933;28;20028;-78
2022/12/08 12:29:49;;;;;;;1.10;0.75;;;;;;;;;;5075174;28;20048;-78
2022/12/08 12:32:14;;;;;;;3.85;0.80;;;;;;;;;;5090905;28;20032;-79
2022/12/08 12:34:48;;;;;;;6.93;0.75;;;;;;;;;;5057013;28;20031;-80
2022/12/08 12:37:25;;;;;;;2.15;0.65;;;;;;;;;;5090930;28;20094;-80
2022/12/08 12:39:50;;;;;;;2.28;0.90;;;;;;;;;;5075207;28;20028;-80
2022/12/08 12:42:41;;;;;;;1.65;0.70;;;;;;;;;;5075026;28;20486;-79
2022/12/08 12:45:14;;;;;;;0.85;0.60;;;;;;;;;;5090476;28;20031;-79
2022/12/08 12:47:50;;;;;;;0.60;0.60;;;;;;;;;;5074974;28;20020;-79
2022/12/08 12:50:31;;;;;;;2.42;0.50;;;;;;;;;;5056756;28;20704;-79
2022/12/08 12:52:57;;;;;;;0.68;0.63;;;;;;;;;;5073576;28;20029;-79
2022/12/08 12:55:25;;;;;;;3.42;0.60;;;;;;;;;;5073715;28;20395;-79
2022/12/08 12:57:53;;;;;;;1.02;0.70;;;;;;;;;;5073214;28;20465;-79
2022/12/08 13:00:24;;;;;;;1.10;0.80;;;;;;;;;;5090463;28;20024;-79
2022/12/08 13:02:50;;;;;;;0.80;0.68;;;;;;;;;;5090398;28;20467;-79
2022/12/08 13:05:49;;;;;;;0.63;0.63;;;;;;;;;;5073150;28;20036;-79
2022/12/08 13:08:21;;;;;;;0.93;0.80;;;;;;;;;;5056326;28;20032;-79
2022/12/08 13:11:00;;;;;;;4.10;0.80;;;;;;;;;;5072991;28;20056;-79
2022/12/08 13:13:25;;;;;;;1.80;0.57;;;;;;;;;;5089769;28;20020;-80
2022/12/08 13:16:15;;;;;;;1.92;0.60;;;;;;;;;;5072980;28;20048;-79
2022/12/08 13:18:45;;;;;;;0.60;0.57;;;;;;;;;;5089922;28;20463;-79
2022/12/08 13:21:16;;;;;;;0.65;0.60;;;;;;;;;;5089695;28;20128;-79
2022/12/08 13:23:47;;;;;;;0.98;0.55;;;;;;;;;;5072744;28;20043;-79
2022/12/08 13:26:14;;;;;;;3.20;0.65;;;;;;;;;;5074123;28;20047;-79
2022/12/08 13:28:57;;;;;;;2.55;0.65;;;;;;;;;;5073094;28;20029;-79
2022/12/08 13:31:36;;;;;;;0.52;0.52;;;;;;;;;;5072422;28;20032;-79
2022/12/08 13:34:29;;;;;;;0.57;0.57;;;;;;;;;;5072653;28;20039;-79
2022/12/08 13:36:54;;;;;;;0.60;0.60;;;;;;;;;;5089748;28;20023;-78
2022/12/08 13:39:31;;;;;;;0.52;0.50;;;;;;;;;;5072765;28;20028;-78
2022/12/08 13:42:01;;;;;;;5.68;0.80;;;;;;;;;;5074568;28;20020;-79
2022/12/08 13:44:58;;;;;;;2.85;0.90;;;;;;;;;;5056241;28;20066;-78
2022/12/08 13:47:34;;;;;;;8.50;0.73;;;;;;;;;;5057181;28;20044;-78
2022/12/08 13:50:05;;;;;;;2.33;0.57;;;;;;;;;;5089896;28;20025;-78
2022/12/08 13:52:37;;;;;;;4.07;1.02;;;;;;;;;;5072435;28;20140;-78
2022/12/08 13:55:04;;;;;;;1.83;0.80;;;;;;;;;;5072291;28;20479;-78
2022/12/08 13:57:32;;;;;;;3.78;0.82;;;;;;;;;;5072298;28;20035;-78
2022/12/08 14:00:05;;;;;;;3.58;0.77;;;;;;;;;;5089642;28;20025;-78
2022/12/08 14:02:44;;;;;;;3.40;0.90;;;;;;;;;;5072486;28;20033;-78
2022/12/08 14:05:09;;;;;;;3.80;0.80;;;;;;;;;;5072023;28;20024;-78
2022/12/08 14:07:36;;;;;;;4.80;1.17;;;;;;;;;;5072764;28;20028;-78
2022/12/08 14:10:03;;;;;;;1.98;1.00;;;;;;;;;;5074362;28;20024;-78
2022/12/08 14:12:28;;;;;;;2.47;1.08;;;;;;;;;;5090014;28;20048;-78
2022/12/08 14:15:04;;;;;;;8.23;1.20;;;;;;;;;;5072518;28;20072;-78
2022/12/08 14:17:31;;;;;;;1.15;1.00;;;;;;;;;;5072484;28;20053;-79
2022/12/08 14:20:18;;;;;;;2.42;1.00;;;;;;;;;;5072379;28;20036;-79
2022/12/08 14:22:45;;;;;;;4.45;1.40;;;;;;;;;;5072262;28;20032;-78
2022/12/08 14:25:13;;;;;;;4.38;1.00;;;;;;;;;;5055666;28;20056;-78
2022/12/08 14:27:39;;;;;;;2.05;1.08;;;;;;;;;;5072282;28;20028;-79
2022/12/08 14:30:19;;;;;;;6.75;1.20;;;;;;;;;;5073923;28;20036;-79
2022/12/08 14:32:53;;;;;;;1.40;1.02;;;;;;;;;;5089022;28;20028;-79
2022/12/08 14:35:18;;;;;;;;;;;;;;;;;;5089543;28;20036;-78
2022/12/08 14:37:46;;;;;;;7.73;1.30;;;;;;;;;;5073567;28;19908;-78
2022/12/08 14:40:18;;;;;;;3.63;1.08;;;;;;;;;;5088806;28;20253;-80
2022/12/08 14:43:06;;;;;;;3.10;1.23;;;;;;;;;;5072150;28;20463;-80
2022/12/08 14:45:33;;;;;;;2.25;1.13;;;;;;;;;;5067751;28;20124;-80
2022/12/08 14:48:37;;;;;;;8.35;1.23;;;;;;;;;;5073432;28;20028;-80
2022/12/08 14:51:02;;;;;;;4.03;1.10;;;;;;;;;;5031277;28;20021;-80
2022/12/08 14:53:39;;;;;;;5.60;1.20;;;;;;;;;;5030958;28;20071;-80
2022/12/08 14:56:30;;;;;;;4.78;1.55;;;;;;;;;;4997989;28;20038;-79
2022/12/08 14:59:13;;;;;;;3.35;1.20;;;;;;;;;;5024185;28;20044;-79
2022/12/08 15:01:39;;;;;;;1.40;0.90;;;;;;;;;;4998094;28;20373;-80
2022/12/08 15:04:12;;;;;;;4.65;1.10;;;;;;;;;;5014645;28;20040;-80